Time;durP1;ratioP1;P1;durP2;ratioP2;P2;SDS_P1;SDS_P2;PMS_P1;PMS_P2;Temp;Humidity;BMP_temperature;BMP_pressure;BME280_temperature;BME280_humidity;BME280_pressure;Samples;Min_cycle;Max_cycle;Signal;HPM_P1;HPM_P2
2023/07/23 00:01:00;;;;;;;2.50;1.10;;;;;;;26.18;72.00;95291.28;5092632;28;20595;-59
2023/07/23 00:03:28;;;;;;;0.87;0.53;;;;;;;26.20;73.12;95283.53;5092413;28;20870;-59
2023/07/23 00:05:57;;;;;;;0.43;0.37;;;;;;;26.41;71.91;95278.31;5093175;28;20433;-59
2023/07/23 00:08:25;;;;;;;3.60;1.57;;;;;;;26.14;71.73;95279.56;5092558;28;20814;-58
2023/07/23 00:10:57;;;;;;;3.70;1.67;;;;;;;26.24;73.11;95284.34;5092620;28;20462;-59
2023/07/23 00:13:27;;;;;;;0.53;0.40;;;;;;;26.33;72.62;95293.00;5092236;28;20436;-58
2023/07/23 00:15:55;;;;;;;14.13;0.70;;;;;;;26.15;72.08;95292.00;5092656;28;20897;-59
2023/07/23 00:18:23;;;;;;;7.20;0.80;;;;;;;26.24;74.38;95297.94;5092402;28;20432;-58
2023/07/23 00:20:52;;;;;;;2.80;1.73;;;;;;;26.30;73.19;95295.66;5092201;28;20490;-59
2023/07/23 00:23:20;;;;;;;0.50;0.40;;;;;;;26.17;73.70;95278.03;5092214;28;20443;-58
2023/07/23 00:25:48;;;;;;;4.23;0.60;;;;;;;26.05;73.40;95270.09;5092379;28;20465;-59
2023/07/23 00:28:17;;;;;;;0.50;0.40;;;;;;;26.20;73.40;95286.25;5091923;28;20937;-59
2023/07/23 00:30:46;;;;;;;0.40;0.40;;;;;;;26.21;72.79;95289.75;5092740;28;20441;-59
2023/07/23 00:33:15;;;;;;;0.40;0.30;;;;;;;26.15;71.82;95294.72;5092259;28;20440;-59
2023/07/23 00:35:43;;;;;;;0.40;0.30;;;;;;;26.15;72.99;95288.50;5092286;28;20854;-59
2023/07/23 00:38:11;;;;;;;1.17;0.30;;;;;;;25.83;71.95;95286.09;5090675;28;20445;-59
2023/07/23 00:40:40;;;;;;;2.20;1.43;;;;;;;25.98;70.74;95289.81;5091690;28;20564;-59
2023/07/23 00:43:09;;;;;;;1.47;0.70;;;;;;;25.55;72.71;95293.06;5092104;28;20464;-59
2023/07/23 00:45:37;;;;;;;5.00;1.70;;;;;;;25.29;74.48;95292.97;5091231;28;20521;-58
2023/07/23 00:48:07;;;;;;;2.97;0.70;;;;;;;25.03;77.73;95304.56;5091653;28;20447;-58
2023/07/23 00:50:36;;;;;;;0.40;0.30;;;;;;;25.22;79.42;95305.28;5091475;28;20433;-58
2023/07/23 00:53:04;;;;;;;0.70;0.50;;;;;;;25.53;77.09;95309.69;5092045;28;20493;-59
2023/07/23 00:55:33;;;;;;;0.73;0.40;;;;;;;25.36;76.88;95309.38;5091592;28;20433;-58
2023/07/23 00:58:01;;;;;;;1.23;0.80;;;;;;;24.74;80.95;95305.97;5091799;28;20444;-59
2023/07/23 01:00:29;;;;;;;0.70;0.60;;;;;;;24.74;82.21;95313.31;5091731;28;20855;-59
2023/07/23 01:02:58;;;;;;;0.47;0.37;;;;;;;25.13;78.46;95312.88;5091781;28;20524;-60
2023/07/23 01:05:29;;;;;;;0.50;0.40;;;;;;;25.15;80.27;95310.59;5091470;28;20437;-59
2023/07/23 01:07:58;;;;;;;7.20;1.33;;;;;;;24.89;81.09;95305.09;5081193;28;20464;-59
2023/07/23 01:10:27;;;;;;;3.50;0.83;;;;;;;24.86;80.99;95296.91;5089020;28;20965;-59
2023/07/23 01:12:56;;;;;;;0.60;0.50;;;;;;;24.95;83.29;95292.81;5092163;28;20850;-60
2023/07/23 01:15:24;;;;;;;1.70;0.90;;;;;;;25.20;82.72;95290.50;5091622;28;20446;-59
2023/07/23 01:17:54;;;;;;;1.03;0.60;;;;;;;25.21;81.75;95281.25;5091597;28;20437;-59
2023/07/23 01:20:22;;;;;;;0.60;0.40;;;;;;;25.36;80.62;95277.59;5091322;28;20479;-59
2023/07/23 01:22:52;;;;;;;0.50;0.30;;;;;;;25.27;80.94;95288.69;5095811;28;20440;-59
2023/07/23 01:25:20;;;;;;;1.37;1.30;;;;;;;25.39;80.12;95295.09;5071974;28;20486;-59
2023/07/23 01:27:48;;;;;;;0.40;0.30;;;;;;;25.46;78.89;95287.09;5098125;28;20485;-58
2023/07/23 01:30:17;;;;;;;0.40;0.30;;;;;;;25.37;73.63;95302.81;5098763;28;20944;-59
2023/07/23 01:32:47;;;;;;;0.60;0.60;;;;;;;24.95;75.84;95317.22;5097730;28;20447;-58
2023/07/23 01:35:17;;;;;;;0.67;0.63;;;;;;;24.51;83.20;95316.75;5098676;28;20444;-59
2023/07/23 01:37:48;;;;;;;2.80;1.17;;;;;;;24.19;85.93;95317.22;5098479;28;20952;-58
2023/07/23 01:40:18;;;;;;;0.60;0.53;;;;;;;24.07;91.88;95317.31;5098133;28;21061;-59
2023/07/23 01:42:46;;;;;;;0.50;0.37;;;;;;;24.11;89.80;95251.28;5098298;28;20845;-58
2023/07/23 01:45:15;;;;;;;0.50;0.40;;;;;;;24.62;87.98;95315.03;5097954;28;20440;-58
2023/07/23 01:47:43;;;;;;;0.40;0.30;;;;;;;24.66;90.26;95325.16;5098466;28;20824;-58
2023/07/23 01:50:12;;;;;;;0.40;0.30;;;;;;;24.73;89.56;95309.81;5098049;28;20885;-58
2023/07/23 01:52:40;;;;;;;0.40;0.20;;;;;;;24.87;85.79;95306.63;5098436;28;20464;-58
2023/07/23 01:55:09;;;;;;;0.60;0.40;;;;;;;24.91;88.24;95310.94;5098058;28;20481;-59
2023/07/23 01:57:39;;;;;;;0.50;0.30;;;;;;;24.87;88.25;95310.09;5098100;28;20501;-58
2023/07/23 02:00:09;;;;;;;0.60;0.40;;;;;;;24.81;87.15;95314.25;5097922;28;20568;-59
2023/07/23 02:02:37;;;;;;;0.60;0.37;;;;;;;24.75;87.56;95307.50;5098203;28;20441;-58
2023/07/23 02:05:06;;;;;;;0.63;0.63;;;;;;;24.77;89.11;95315.31;5098070;28;20524;-59
2023/07/23 02:07:35;;;;;;;0.87;0.87;;;;;;;24.81;88.50;95318.88;5098068;28;20449;-60
2023/07/23 02:10:05;;;;;;;0.60;0.40;;;;;;;24.78;87.41;95317.69;5097587;28;20551;-58
2023/07/23 02:12:34;;;;;;;3.90;0.40;;;;;;;24.85;86.33;95311.59;5098334;28;20444;-58
2023/07/23 02:15:04;;;;;;;0.40;0.20;;;;;;;24.88;85.49;95319.81;5097331;28;20467;-58
2023/07/23 02:17:33;;;;;;;0.60;0.50;;;;;;;24.81;85.22;95316.97;5097670;28;20505;-58
2023/07/23 02:20:01;;;;;;;0.40;0.30;;;;;;;24.78;87.10;95312.25;5097646;28;20471;-59
2023/07/23 02:22:30;;;;;;;0.40;0.30;;;;;;;24.94;86.77;95321.09;5097637;28;20915;-58
2023/07/23 02:24:58;;;;;;;0.80;0.70;;;;;;;24.54;83.21;95324.16;5097789;28;20444;-58
2023/07/23 02:27:26;;;;;;;1.00;0.60;;;;;;;23.96;87.79;95323.31;5098060;28;20869;-58
2023/07/23 02:29:54;;;;;;;1.73;1.63;;;;;;;24.13;92.00;95324.88;5097757;28;20460;-59
2023/07/23 02:32:24;;;;;;;10.13;1.37;;;;;;;23.68;94.32;95313.78;5097691;28;20865;-58
2023/07/23 02:34:52;;;;;;;0.60;0.53;;;;;;;23.53;97.28;95323.47;5093885;28;20849;-58
2023/07/23 02:37:21;;;;;;;0.60;0.47;;;;;;;23.54;100.00;95324.25;5094995;28;20504;-58
2023/07/23 02:39:49;;;;;;;0.60;0.60;;;;;;;23.54;98.46;95338.56;5094070;28;20472;-58
2023/07/23 02:42:17;;;;;;;2.20;1.70;;;;;;;23.95;99.61;95346.13;5094247;28;20502;-58
2023/07/23 02:44:46;;;;;;;0.83;0.43;;;;;;;23.82;97.23;95341.16;5094237;28;20486;-58
2023/07/23 02:47:14;;;;;;;8.80;0.90;;;;;;;23.46;100.00;95347.66;5093895;28;20469;-57
2023/07/23 02:49:44;;;;;;;0.50;0.47;;;;;;;23.84;96.94;95355.91;5086907;28;20487;-58
2023/07/23 02:52:13;;;;;;;0.40;0.30;;;;;;;23.88;94.78;95356.00;5088859;28;20445;-58
2023/07/23 02:54:42;;;;;;;0.60;0.50;;;;;;;23.94;99.06;95357.28;5094120;28;20536;-58
2023/07/23 02:57:10;;;;;;;0.77;0.77;;;;;;;24.21;97.98;95356.34;5093081;28;21076;-58
2023/07/23 02:59:39;;;;;;;0.93;0.93;;;;;;;24.24;95.46;95352.94;5094308;28;20484;-57
2023/07/23 03:02:07;;;;;;;1.30;1.30;;;;;;;24.02;92.91;95340.84;5094167;28;20460;-57
2023/07/23 03:04:36;;;;;;;0.63;0.50;;;;;;;24.21;97.05;95350.94;5093861;28;20437;-59
2023/07/23 03:07:09;;;;;;;0.77;0.77;;;;;;;24.07;95.41;95347.91;5093912;28;20437;-58
2023/07/23 03:09:37;;;;;;;0.50;0.33;;;;;;;24.10;91.96;95354.56;5088138;28;20444;-58
2023/07/23 03:12:07;;;;;;;0.50;0.43;;;;;;;24.44;90.41;95356.44;5093914;28;21117;-58
2023/07/23 03:14:35;;;;;;;0.50;0.40;;;;;;;24.34;84.04;95349.69;5093716;28;20497;-58
2023/07/23 03:17:04;;;;;;;2.67;1.37;;;;;;;23.93;86.87;95364.59;5093877;28;20453;-58
2023/07/23 03:19:32;;;;;;;2.23;0.50;;;;;;;23.85;80.92;95368.31;5094003;28;20443;-59
2023/07/23 03:22:01;;;;;;;2.30;0.60;;;;;;;23.46;86.79;95377.41;5093500;28;20537;-58
2023/07/23 03:24:30;;;;;;;3.80;0.70;;;;;;;23.54;81.90;95362.94;5093424;28;20436;-58
2023/07/23 03:26:59;;;;;;;0.80;0.47;;;;;;;23.57;89.86;95373.06;5067788;28;20512;-58
2023/07/23 03:29:27;;;;;;;0.50;0.40;;;;;;;23.80;88.20;95373.22;5092823;28;20441;-58
2023/07/23 03:31:55;;;;;;;0.50;0.40;;;;;;;24.06;86.00;95386.94;5093251;28;20444;-58
2023/07/23 03:34:24;;;;;;;6.70;3.00;;;;;;;24.10;79.23;95373.53;5093240;28;20977;-58
2023/07/23 03:36:52;;;;;;;9.83;0.80;;;;;;;23.89;79.46;95385.41;5093202;28;20433;-58
2023/07/23 03:39:20;;;;;;;0.80;0.57;;;;;;;24.00;80.83;95389.16;5093460;28;20948;-58
2023/07/23 03:41:50;;;;;;;1.23;1.13;;;;;;;23.72;78.25;95380.38;5093472;28;20984;-59
2023/07/23 03:44:19;;;;;;;0.50;0.40;;;;;;;23.25;81.40;95390.38;5092564;28;20442;-58
2023/07/23 03:47:04;;;;;;;4.53;0.70;;;;;;;23.19;79.59;95391.75;5092923;28;20952;-59
2023/07/23 03:49:32;;;;;;;1.67;1.03;;;;;;;23.65;77.49;95390.25;5092575;28;20443;-58
2023/07/23 03:52:00;;;;;;;0.60;0.60;;;;;;;23.98;80.64;95391.41;5093325;28;20436;-59
2023/07/23 03:54:29;;;;;;;0.40;0.30;;;;;;;24.18;76.41;95396.91;5093344;28;20436;-59
2023/07/23 03:56:58;;;;;;;1.23;1.13;;;;;;;24.11;76.16;95397.53;5093101;28;20494;-54
2023/07/23 03:59:30;;;;;;;5.90;0.87;;;;;;;24.11;77.90;95397.53;5087344;28;20477;-53
2023/07/23 04:01:58;;;;;;;5.23;0.80;;;;;;;24.35;76.62;95397.31;5087447;28;20470;-52
2023/07/23 04:04:27;;;;;;;3.53;0.73;;;;;;;24.30;76.93;95410.34;5093296;28;20440;-52
2023/07/23 04:06:55;;;;;;;0.83;0.83;;;;;;;24.29;77.82;95411.47;5092661;28;20994;-52
2023/07/23 04:09:23;;;;;;;1.40;1.30;;;;;;;23.78;78.02;95400.59;5093115;28;20827;-53
2023/07/23 04:11:52;;;;;;;5.23;1.27;;;;;;;23.65;83.35;95399.16;5092022;28;21021;-52
2023/07/23 04:14:22;;;;;;;0.90;0.83;;;;;;;23.14;87.68;95402.84;5092588;28;20957;-52
2023/07/23 04:16:50;;;;;;;6.60;1.53;;;;;;;23.04;89.18;95395.22;5092628;28;20505;-52
2023/07/23 04:19:18;;;;;;;0.60;0.57;;;;;;;22.97;93.60;95406.63;5093007;28;20808;-53
2023/07/23 04:21:47;;;;;;;0.73;0.40;;;;;;;23.47;92.62;95407.97;5092111;28;20473;-52
2023/07/23 04:24:15;;;;;;;0.70;0.50;;;;;;;23.77;89.13;95404.47;5092302;28;20472;-53
2023/07/23 04:26:43;;;;;;;4.90;2.03;;;;;;;23.08;93.73;95417.72;5092166;28;20935;-53
2023/07/23 04:29:12;;;;;;;2.50;1.27;;;;;;;23.64;96.96;95416.50;5092569;28;20502;-53
2023/07/23 04:31:41;;;;;;;1.43;0.87;;;;;;;23.98;91.02;95418.47;5091652;28;21013;-53
2023/07/23 04:34:10;;;;;;;0.60;0.60;;;;;;;24.27;86.09;95419.97;5092243;28;20443;-53
2023/07/23 04:36:38;;;;;;;1.20;1.10;;;;;;;24.41;91.15;95417.53;5092169;28;20441;-53
2023/07/23 04:39:06;;;;;;;2.93;0.60;;;;;;;24.56;88.71;95410.53;5092389;28;20538;-52
2023/07/23 04:41:34;;;;;;;4.23;0.53;;;;;;;24.69;87.51;95422.03;5065453;28;20531;-52
2023/07/23 04:44:03;;;;;;;0.80;0.40;;;;;;;24.75;85.03;95421.38;5091977;28;20880;-52
2023/07/23 04:46:31;;;;;;;3.17;1.60;;;;;;;24.65;86.41;95419.22;5092156;28;20497;-52
2023/07/23 04:49:01;;;;;;;7.23;1.60;;;;;;;24.18;91.32;95416.66;5092148;28;20615;-52
2023/07/23 04:51:29;;;;;;;2.87;0.67;;;;;;;24.44;86.12;95408.72;5091858;28;20933;-52
2023/07/23 04:53:58;;;;;;;1.03;0.90;;;;;;;24.63;86.86;95418.81;5091714;28;20955;-52
2023/07/23 04:56:26;;;;;;;0.50;0.40;;;;;;;24.78;85.71;95426.13;5091418;28;20433;-52
2023/07/23 04:58:54;;;;;;;6.23;1.90;;;;;;;24.33;85.79;95426.69;5091490;28;20492;-51
2023/07/23 05:01:23;;;;;;;1.80;1.33;;;;;;;24.26;90.70;95429.22;5091712;28;20889;-52
2023/07/23 05:03:51;;;;;;;0.90;0.50;;;;;;;24.53;89.77;95433.72;5091872;28;20820;-52
2023/07/23 05:06:21;;;;;;;1.70;1.60;;;;;;;24.20;87.97;95446.09;5092309;28;20466;-52
2023/07/23 05:08:49;;;;;;;0.93;0.70;;;;;;;23.94;90.02;95436.59;5091261;28;20441;-51
2023/07/23 05:11:17;;;;;;;8.17;2.27;;;;;;;23.69;93.44;95445.22;5091765;28;20462;-51
2023/07/23 05:13:46;;;;;;;1.37;1.27;;;;;;;24.33;93.19;95444.84;5091696;28;20523;-51
2023/07/23 05:16:14;;;;;;;1.63;0.67;;;;;;;24.73;86.90;95439.13;5091813;28;20470;-51
2023/07/23 05:18:42;;;;;;;1.40;1.17;;;;;;;24.90;83.04;95444.94;5091538;28;20441;-51
2023/07/23 05:21:11;;;;;;;1.90;0.63;;;;;;;25.35;82.41;95443.50;5091365;28;20527;-51
2023/07/23 05:23:41;;;;;;;2.60;2.20;;;;;;;24.91;82.29;95443.81;5090848;28;20441;-51
2023/07/23 05:26:10;;;;;;;0.80;0.80;;;;;;;25.27;82.04;95455.34;5091764;28;20432;-51
2023/07/23 05:28:38;;;;;;;0.90;0.60;;;;;;;25.41;82.37;95448.25;5091474;28;20452;-51
2023/07/23 05:31:06;;;;;;;1.07;0.97;;;;;;;25.35;82.22;95433.41;5091231;28;20466;-51
2023/07/23 05:33:35;;;;;;;1.53;1.43;;;;;;;25.22;85.33;95440.91;5091892;28;20806;-51
2023/07/23 05:36:03;;;;;;;0.90;0.60;;;;;;;25.70;82.85;95444.16;5091320;28;20441;-51
2023/07/23 05:38:32;;;;;;;1.60;1.50;;;;;;;25.47;80.63;95446.84;5091622;28;20471;-51
2023/07/23 05:41:01;;;;;;;1.23;0.77;;;;;;;25.50;81.80;95439.91;5091372;28;21132;-51
2023/07/23 05:43:30;;;;;;;1.60;0.97;;;;;;;25.57;79.07;95445.47;5091464;28;20480;-51
2023/07/23 05:45:58;;;;;;;0.50;0.43;;;;;;;25.94;77.05;95443.78;5091283;28;20436;-51
2023/07/23 05:48:27;;;;;;;0.97;0.83;;;;;;;26.24;75.22;95441.16;5091474;28;20799;-51
2023/07/23 05:50:55;;;;;;;0.40;0.30;;;;;;;26.46;75.45;95432.16;5091590;28;20444;-51
2023/07/23 05:53:23;;;;;;;1.90;0.60;;;;;;;26.64;72.30;95440.56;5091398;28;20444;-51
2023/07/23 05:55:52;;;;;;;1.27;1.23;;;;;;;26.44;71.69;95418.16;5090855;28;20440;-51
2023/07/23 05:58:22;;;;;;;3.60;0.50;;;;;;;26.99;72.11;95427.44;5091364;28;20472;-51
2023/07/23 06:00:50;;;;;;;8.47;1.77;;;;;;;26.93;71.46;95428.91;5077152;28;21161;-52
2023/07/23 06:03:18;;;;;;;1.17;1.17;;;;;;;26.62;73.44;95426.53;5091058;28;20567;-51
2023/07/23 06:05:47;;;;;;;1.20;1.10;;;;;;;26.84;71.67;95426.47;5091354;28;20436;-51
2023/07/23 06:08:15;;;;;;;3.40;1.87;;;;;;;26.69;73.04;95423.94;5091887;28;20436;-51
2023/07/23 06:10:44;;;;;;;0.80;0.80;;;;;;;27.03;72.21;95431.75;5094901;28;20439;-51
2023/07/23 06:13:12;;;;;;;1.30;1.20;;;;;;;26.71;69.54;95425.13;5094425;28;20447;-52
2023/07/23 06:15:42;;;;;;;11.63;1.07;;;;;;;27.18;70.26;95431.91;5094865;28;20501;-52
2023/07/23 06:18:10;;;;;;;2.00;1.90;;;;;;;27.10;70.30;95433.78;5081355;28;20448;-54
2023/07/23 06:20:38;;;;;;;1.37;1.37;;;;;;;27.63;69.11;95426.19;5094782;28;20519;-54
2023/07/23 06:23:07;;;;;;;1.07;0.90;;;;;;;28.29;67.09;95430.63;5094501;28;20507;-54
2023/07/23 06:25:35;;;;;;;2.20;1.00;;;;;;;28.31;65.24;95423.66;5094659;28;20451;-54
2023/07/23 06:28:03;;;;;;;1.00;0.90;;;;;;;27.92;65.79;95416.31;5093849;28;20435;-54
2023/07/23 06:30:33;;;;;;;0.70;0.70;;;;;;;28.12;64.85;95374.84;5093302;28;20440;-55
2023/07/23 06:33:02;;;;;;;1.03;0.87;;;;;;;28.20;65.20;95405.66;5094242;28;20440;-55
2023/07/23 06:35:37;;;;;;;0.43;0.43;;;;;;;28.46;62.40;95408.19;5093438;28;20436;-55
2023/07/23 06:38:05;;;;;;;8.53;0.90;;;;;;;28.52;59.56;95406.63;5092272;28;20436;-55
2023/07/23 06:40:33;;;;;;;15.60;0.90;;;;;;;29.25;59.41;95410.09;5092782;28;20443;-56
2023/07/23 06:43:02;;;;;;;0.47;0.40;;;;;;;29.69;54.18;95413.31;5092715;28;20476;-55
2023/07/23 06:45:30;;;;;;;1.43;1.43;;;;;;;29.47;53.20;95409.75;5094019;28;20440;-54
2023/07/23 06:47:58;;;;;;;0.77;0.77;;;;;;;29.72;52.63;95415.28;5093991;28;20870;-54
2023/07/23 06:50:30;;;;;;;1.37;0.50;;;;;;;29.98;52.42;95401.25;5093652;28;20432;-54
2023/07/23 06:52:58;;;;;;;0.40;0.40;;;;;;;30.63;52.63;95400.00;5068794;28;20472;-55
2023/07/23 06:55:29;;;;;;;1.47;1.37;;;;;;;30.98;50.45;95404.59;5093655;28;20516;-54
2023/07/23 06:57:57;;;;;;;1.30;0.83;;;;;;;30.17;50.58;95397.31;5093761;28;20548;-55
2023/07/23 07:00:26;;;;;;;0.80;0.70;;;;;;;30.73;51.12;95397.25;5093558;28;20563;-55
2023/07/23 07:02:54;;;;;;;0.70;0.67;;;;;;;31.23;50.42;95406.03;5094168;28;20479;-55
2023/07/23 07:05:23;;;;;;;1.03;0.93;;;;;;;31.10;49.45;95404.91;5094150;28;20516;-55
2023/07/23 07:07:53;;;;;;;6.13;0.80;;;;;;;31.07;52.42;95402.22;5094076;28;20439;-56
2023/07/23 07:10:21;;;;;;;3.90;0.50;;;;;;;31.62;47.88;95407.78;5093427;28;20435;-55
2023/07/23 07:12:49;;;;;;;2.30;2.10;;;;;;;31.68;49.16;95401.47;5093877;28;20506;-55
2023/07/23 07:15:18;;;;;;;12.03;1.30;;;;;;;31.56;50.71;95398.44;5093479;28;20475;-55
2023/07/23 07:17:46;;;;;;;1.50;1.07;;;;;;;32.48;49.72;95402.00;5093960;28;20438;-55
2023/07/23 07:20:15;;;;;;;0.40;0.30;;;;;;;32.97;48.05;95402.63;5092604;28;20440;-55
2023/07/23 07:22:43;;;;;;;1.00;0.50;;;;;;;33.24;47.23;95401.50;5093717;28;20503;-55
2023/07/23 07:25:13;;;;;;;1.30;0.70;;;;;;;33.32;46.48;95393.97;5093685;28;20440;-55
2023/07/23 07:27:41;;;;;;;0.67;0.67;;;;;;;33.32;46.30;95391.22;5093787;28;20464;-55
2023/07/23 07:30:10;;;;;;;0.70;0.63;;;;;;;33.52;46.20;95391.34;5093523;28;20453;-54
2023/07/23 07:32:39;;;;;;;1.33;0.80;;;;;;;33.77;41.65;95387.06;5093447;28;20439;-54
2023/07/23 07:35:08;;;;;;;2.70;2.50;;;;;;;33.62;43.92;95393.97;5093564;28;20432;-54
2023/07/23 07:37:36;;;;;;;0.70;0.70;;;;;;;33.84;43.56;95378.69;5093186;28;20439;-55
2023/07/23 07:40:06;;;;;;;2.23;2.03;;;;;;;34.46;40.96;95380.00;5093236;28;20498;-54
2023/07/23 07:42:35;;;;;;;0.67;0.67;;;;;;;34.05;38.15;95382.28;5093182;28;21018;-54
2023/07/23 07:45:05;;;;;;;0.40;0.30;;;;;;;34.13;37.11;95375.50;5093483;28;20435;-54
2023/07/23 07:47:33;;;;;;;1.07;0.70;;;;;;;34.32;36.87;95370.03;5093106;28;20432;-54
2023/07/23 07:50:03;;;;;;;2.77;1.13;;;;;;;34.53;36.17;95376.34;5092939;28;20435;-54
2023/07/23 07:52:31;;;;;;;0.40;0.30;;;;;;;35.02;31.46;95378.13;5092689;28;20496;-54
2023/07/23 07:55:00;;;;;;;0.90;0.80;;;;;;;35.62;30.88;95371.38;5092781;28;20456;-55
2023/07/23 07:57:28;;;;;;;0.80;0.60;;;;;;;36.09;29.43;95366.31;5092788;28;20432;-54
2023/07/23 08:00:02;;;;;;;0.70;0.70;;;;;;;35.78;29.31;95305.16;5092812;28;20475;-55
2023/07/23 08:02:31;;;;;;;3.27;0.93;;;;;;;35.82;29.54;95369.31;5092759;28;20439;-54
2023/07/23 08:05:00;;;;;;;1.13;0.83;;;;;;;36.22;30.40;95367.94;5093100;28;20432;-54
2023/07/23 08:07:29;;;;;;;0.97;0.70;;;;;;;35.82;28.11;95360.25;5093231;28;20225;-55
2023/07/23 08:10:00;;;;;;;0.87;0.87;;;;;;;35.39;29.44;95364.00;5091375;28;20508;-54
2023/07/23 08:12:29;;;;;;;2.00;0.63;;;;;;;36.42;29.03;95356.75;5092779;28;20688;-54
2023/07/23 08:15:00;;;;;;;1.80;0.73;;;;;;;36.57;29.54;95357.97;5092945;28;20204;-54
2023/07/23 08:17:29;;;;;;;0.53;0.50;;;;;;;37.42;27.91;95347.25;5092705;28;20711;-54
2023/07/23 08:19:58;;;;;;;0.43;0.40;;;;;;;37.60;28.53;95357.78;5092154;28;20194;-53
2023/07/23 08:22:26;;;;;;;2.77;0.60;;;;;;;37.80;25.79;95345.22;5092567;28;20284;-54
2023/07/23 08:24:55;;;;;;;0.63;0.63;;;;;;;37.41;26.93;95331.88;5092547;28;20221;-53
2023/07/23 08:27:26;;;;;;;0.80;0.60;;;;;;;37.59;25.93;95339.63;5092554;28;20198;-53
2023/07/23 08:29:54;;;;;;;2.15;0.82;;;;;;;37.26;25.97;95352.84;5092292;28;20190;-53
2023/07/23 08:32:26;;;;;;;1.88;0.52;;;;;;;37.46;27.16;95350.69;5091456;28;20202;-53
2023/07/23 09:15:22;;;;;;;9.70;0.60;;;;;;;38.92;25.50;95336.28;4760807;27;9432678;-54
2023/07/23 09:17:50;;;;;;;0.60;0.60;;;;;;;39.61;22.88;95323.75;5067740;28;20213;-54
2023/07/23 09:20:19;;;;;;;1.50;0.60;;;;;;;39.46;23.97;95324.72;5067267;28;20202;-54
2023/07/23 09:22:48;;;;;;;1.73;0.80;;;;;;;39.80;25.96;95330.09;5068140;28;20206;-54
2023/07/23 09:25:16;;;;;;;1.50;0.40;;;;;;;39.78;25.66;95319.47;5067670;28;20205;-54
2023/07/23 09:27:44;;;;;;;1.85;0.43;;;;;;;39.88;24.63;95323.03;5067745;28;20186;-54
2023/07/23 09:30:24;;;;;;;0.60;0.50;;;;;;;39.59;23.74;95331.72;5066757;28;20198;-54
2023/07/23 09:32:57;;;;;;;0.70;0.70;;;;;;;39.89;23.24;95264.31;5067776;28;20710;-54
2023/07/23 09:35:25;;;;;;;0.30;0.30;;;;;;;40.59;22.55;95301.38;5067721;28;20191;-54
2023/07/23 09:37:58;;;;;;;0.68;0.40;;;;;;;40.91;23.95;95322.97;5067743;28;20641;-54
2023/07/23 09:40:34;;;;;;;0.65;0.65;;;;;;;40.91;24.25;95330.56;5067219;28;20194;-54
2023/07/23 09:43:03;;;;;;;2.88;0.50;;;;;;;41.08;21.01;95315.09;5067573;28;20225;-54
2023/07/23 09:45:36;;;;;;;0.50;0.50;;;;;;;40.77;24.31;95320.81;5066903;28;20198;-54
2023/07/23 09:48:05;;;;;;;0.77;0.77;;;;;;;39.11;23.64;95324.09;5066984;28;20647;-54
2023/07/23 09:50:45;;;;;;;4.65;2.38;;;;;;;39.43;24.66;95329.19;5067262;28;20548;-54
2023/07/23 09:53:15;;;;;;;0.45;0.45;;;;;;;40.26;24.32;95331.78;5067184;28;20202;-54
2023/07/23 09:55:45;;;;;;;0.73;0.57;;;;;;;40.16;25.47;95323.88;5066939;28;20198;-54
2023/07/23 09:58:16;;;;;;;1.30;1.23;;;;;;;40.02;23.40;95305.03;5066755;28;20202;-55
2023/07/23 10:00:46;;;;;;;1.38;0.95;;;;;;;39.80;25.08;95324.56;5066786;28;20190;-54
2023/07/23 10:03:16;;;;;;;0.57;0.57;;;;;;;40.19;23.52;95329.28;5066309;28;20737;-54
2023/07/23 10:05:44;;;;;;;0.50;0.50;;;;;;;41.00;23.55;95322.97;5066827;28;20654;-54
2023/07/23 10:08:14;;;;;;;1.00;0.75;;;;;;;40.58;23.56;95318.53;5064206;28;20210;-54
2023/07/23 10:10:43;;;;;;;0.82;0.82;;;;;;;40.00;24.24;95315.81;5046769;28;20682;-54
2023/07/23 10:13:11;;;;;;;1.00;0.77;;;;;;;39.71;24.06;95311.44;5046680;28;20195;-54
2023/07/23 10:15:40;;;;;;;0.40;0.40;;;;;;;40.26;24.47;95308.78;5045582;28;20227;-54
2023/07/23 10:18:13;;;;;;;1.85;0.60;;;;;;;41.16;23.70;95303.13;5069487;28;20205;-54
2023/07/23 10:20:44;;;;;;;2.55;0.45;;;;;;;41.28;22.73;95306.22;5073643;28;20234;-55
2023/07/23 10:23:13;;;;;;;1.15;0.50;;;;;;;41.07;23.94;95305.97;5073619;28;20186;-55
2023/07/23 10:25:41;;;;;;;2.80;1.38;;;;;;;40.79;24.74;95317.56;5073307;28;20668;-54
2023/07/23 10:28:11;;;;;;;0.80;0.47;;;;;;;40.90;22.59;95310.34;5073219;28;20194;-55
2023/07/23 10:30:39;;;;;;;1.50;0.73;;;;;;;41.11;22.19;95312.13;5073021;28;20202;-54
2023/07/23 10:33:30;;;;;;;0.45;0.30;;;;;;;41.04;22.64;95311.69;5060120;28;20672;-55
2023/07/23 10:36:05;;;;;;;0.30;0.30;;;;;;;40.76;23.22;95218.47;5072905;28;20586;-54
2023/07/23 10:38:35;;;;;;;0.55;0.50;;;;;;;41.56;23.56;95311.22;5073277;28;20210;-54
2023/07/23 10:41:04;;;;;;;0.50;0.50;;;;;;;41.24;24.00;95302.84;5072792;28;20206;-54
2023/07/23 10:43:43;;;;;;;1.75;0.52;;;;;;;40.55;22.61;95292.44;5073322;28;20205;-54
2023/07/23 10:46:13;;;;;;;0.77;0.77;;;;;;;41.12;22.89;95291.44;5072666;28;20194;-55
2023/07/23 10:48:47;;;;;;;2.05;0.50;;;;;;;40.61;24.25;95300.94;5072248;28;20198;-54
2023/07/23 10:51:18;;;;;;;1.02;0.82;;;;;;;40.70;22.93;95298.13;5073026;28;20255;-54
2023/07/23 10:53:57;;;;;;;0.60;0.60;;;;;;;40.77;22.00;95304.16;5072658;28;20194;-54
2023/07/23 10:56:28;;;;;;;0.73;0.70;;;;;;;41.44;23.29;95308.66;5072740;28;20705;-54
2023/07/23 10:58:57;;;;;;;2.38;1.05;;;;;;;41.00;21.78;95299.97;5072229;28;20194;-55
2023/07/23 11:01:27;;;;;;;0.40;0.40;;;;;;;41.88;21.04;95306.13;5072458;28;20205;-55
2023/07/23 11:03:58;;;;;;;0.50;0.40;;;;;;;41.48;22.99;95292.56;5079519;28;20231;-54
2023/07/23 11:06:31;;;;;;;0.40;0.40;;;;;;;40.82;22.81;95299.97;5092508;28;20251;-54
2023/07/23 11:09:05;;;;;;;0.55;0.40;;;;;;;41.64;23.91;95295.72;5092679;28;20630;-54
2023/07/23 11:11:38;;;;;;;0.60;0.50;;;;;;;41.37;22.13;95289.53;5092011;28;20301;-54
2023/07/23 11:14:20;;;;;;;2.28;0.30;;;;;;;41.28;22.46;95258.91;5092370;28;20197;-55
2023/07/23 11:16:49;;;;;;;0.30;0.30;;;;;;;42.17;21.44;95290.34;5092269;28;20233;-55
2023/07/23 11:19:20;;;;;;;0.50;0.50;;;;;;;41.39;23.46;95284.25;5092505;28;20198;-55
2023/07/23 11:21:50;;;;;;;1.50;0.70;;;;;;;41.49;22.46;95274.63;5092118;28;20197;-54
2023/07/23 11:24:20;;;;;;;0.60;0.50;;;;;;;41.39;22.63;95264.78;5091888;28;20213;-54
2023/07/23 11:26:49;;;;;;;0.57;0.55;;;;;;;40.52;23.05;95269.13;5091496;28;20193;-54
2023/07/23 11:29:17;;;;;;;0.57;0.50;;;;;;;41.19;23.68;95277.19;5091786;28;20263;-54
2023/07/23 11:31:46;;;;;;;1.23;0.77;;;;;;;41.42;24.01;95270.16;5092128;28;20186;-54
2023/07/23 11:34:14;;;;;;;1.83;0.50;;;;;;;40.84;23.72;95256.56;5092119;28;20202;-54
2023/07/23 11:36:44;;;;;;;0.95;0.50;;;;;;;39.95;23.61;95268.00;5091888;28;20189;-54
2023/07/23 11:39:13;;;;;;;4.75;1.00;;;;;;;39.77;24.05;95239.47;5091485;28;20280;-54
2023/07/23 11:41:43;;;;;;;5.35;0.88;;;;;;;39.47;23.92;95241.03;5091671;28;20193;-54
2023/07/23 11:44:12;;;;;;;0.40;0.40;;;;;;;38.49;24.44;95212.38;5092334;28;20237;-54
2023/07/23 11:46:42;;;;;;;1.25;1.15;;;;;;;39.23;24.00;95262.25;5092330;28;20230;-54
2023/07/23 11:49:12;;;;;;;0.73;0.50;;;;;;;39.38;25.20;95254.91;5091301;28;20659;-54
2023/07/23 11:51:41;;;;;;;0.30;0.30;;;;;;;40.21;25.26;95256.63;5092134;28;20204;-54
2023/07/23 11:54:13;;;;;;;0.70;0.70;;;;;;;40.72;25.04;95257.53;5091962;28;20194;-54
2023/07/23 11:56:45;;;;;;;0.93;0.70;;;;;;;40.69;23.76;95244.56;5092040;28;20588;-54
2023/07/23 11:59:16;;;;;;;0.95;0.60;;;;;;;40.35;24.79;95254.00;5092245;28;20258;-54
2023/07/23 12:01:47;;;;;;;1.20;1.00;;;;;;;40.67;23.88;95252.59;5091524;28;20197;-54
2023/07/23 12:04:15;;;;;;;2.03;1.80;;;;;;;40.63;23.20;95252.00;5091723;28;20598;-54
2023/07/23 12:06:43;;;;;;;1.13;1.13;;;;;;;39.35;24.10;95253.03;5064565;28;20197;-54
2023/07/23 12:09:14;;;;;;;1.13;0.88;;;;;;;38.56;25.11;95254.44;5091799;28;20213;-54
2023/07/23 12:11:43;;;;;;;0.43;0.43;;;;;;;39.24;25.41;95244.38;5090640;28;20186;-54
2023/07/23 12:14:16;;;;;;;0.80;0.80;;;;;;;39.54;24.87;95238.00;5091413;28;20193;-54
2023/07/23 12:16:47;;;;;;;0.60;0.60;;;;;;;39.80;24.95;95242.06;5090928;28;20221;-54
2023/07/23 12:19:17;;;;;;;0.60;0.60;;;;;;;40.18;25.19;95232.56;5091127;28;20221;-54
2023/07/23 12:21:47;;;;;;;0.70;0.70;;;;;;;40.71;24.95;95228.19;5091170;28;20694;-54
2023/07/23 12:24:19;;;;;;;0.70;0.70;;;;;;;40.32;24.10;95231.94;5091401;28;20409;-54